Sterling, Georgia
Current Conditions -  °F | °C
As of 8:55 AM on Wednesday 28 Jan 2015 (Local Time) from KBQK Reporting Station
Clear Clear  
Wind Chill:   Ceiling: Unl
Heat Index:   Visibility: 10mi
Dew Point: -1°   Wind: 7mph
Humidity: 61%   Direction: 360°N
Pressure: 30.25"   Gusts: NA
Location:  31.2665°N, 81.6074°W
Report Text: KBQK 281355Z AUTO 36006KT 10SM CLR 06/M01 A3025 RMK AO1
Loading
Personal Weather Stations






























Interactive Weather Map New forecast layout! Learn more

10-Day Weather Forecast

Advertisements
Track Severe Weather on mobile